Time;durP1;ratioP1;P1;durP2;ratioP2;P2;SDS_P1;SDS_P2;PMS_P1;PMS_P2;Temp;Humidity;BMP_temperature;BMP_pressure;BME280_temperature;BME280_humidity;BME280_pressure;Samples;Min_cycle;Max_cycle;Signal;HPM_P1;HPM_P2
2022/09/21 00:00:27;;;;;;;;;;;20.90;99.90;;;;;;5057305;28;19916;-76
2022/09/21 00:02:57;;;;;;;;;;;21.00;99.90;;;;;;5074349;28;19912;-72
2022/09/21 00:05:24;;;;;;;;;;;21.10;99.90;;;;;;5073509;28;19924;-76
2022/09/21 00:07:51;;;;;;;;;;;21.10;99.90;;;;;;5073407;28;19974;-77
2022/09/21 00:10:19;;;;;;;;;;;21.10;99.90;;;;;;5074420;28;20361;-72
2022/09/21 00:12:47;;;;;;;;;;;21.00;99.90;;;;;;5073826;28;19909;-76
2022/09/21 00:15:16;;;;;;;;;;;21.00;99.90;;;;;;5073729;28;19954;-71
2022/09/21 00:17:44;;;;;;;;;;;21.00;99.90;;;;;;5073583;28;19915;-67
2022/09/21 00:20:11;;;;;;;;;;;21.00;99.90;;;;;;5073454;28;19917;-71
2022/09/21 00:22:37;;;;;;;;;;;21.00;99.90;;;;;;5073737;28;19909;-77
2022/09/21 00:25:04;;;;;;;;;;;20.90;99.90;;;;;;5073545;28;19909;-75
2022/09/21 00:27:31;;;;;;;;;;;21.00;99.90;;;;;;5073529;28;19915;-77
2022/09/21 00:30:02;;;;;;;;;;;21.10;99.90;;;;;;5073791;28;19909;-69
2022/09/21 00:32:32;;;;;;;;;;;21.00;99.90;;;;;;5072903;28;20000;-75
2022/09/21 00:35:02;;;;;;;;;;;21.10;99.90;;;;;;5073304;28;19948;-76
2022/09/21 00:37:29;;;;;;;;;;;21.20;99.90;;;;;;5073278;28;19999;-72
2022/09/21 00:39:56;;;;;;;;;;;21.50;99.90;;;;;;5072934;28;19990;-74
2022/09/21 00:42:24;;;;;;;;;;;21.50;99.60;;;;;;5072993;28;20003;-72
2022/09/21 00:44:51;;;;;;;;;;;21.60;99.30;;;;;;5072966;28;20341;-76
2022/09/21 00:47:27;;;;;;;;;;;21.60;99.30;;;;;;5072783;28;19915;-77
2022/09/21 00:49:55;;;;;;;;;;;21.70;99.50;;;;;;5072444;28;19916;-72
2022/09/21 00:52:23;;;;;;;;;;;21.70;99.20;;;;;;5072837;28;19913;-70
2022/09/21 00:54:53;;;;;;;;;;;21.70;99.20;;;;;;5073120;28;20404;-76
2022/09/21 00:57:21;;;;;;;;;;;21.60;98.80;;;;;;5073008;28;19912;-76
2022/09/21 00:59:49;;;;;;;;;;;21.40;99.50;;;;;;5072298;28;19924;-76
2022/09/21 01:02:17;;;;;;;;;;;21.40;99.40;;;;;;5072493;28;19908;-75
2022/09/21 01:04:44;;;;;;;;;;;21.40;99.60;;;;;;5072579;28;19920;-76
2022/09/21 01:07:14;;;;;;;;;;;21.50;99.10;;;;;;5072602;28;19909;-73
2022/09/21 01:09:41;;;;;;;;;;;21.40;98.90;;;;;;5072362;28;19908;-74
2022/09/21 01:12:20;;;;;;;;;;;21.40;99.10;;;;;;5072619;28;20003;-75
2022/09/21 01:14:54;;;;;;;;;;;21.50;99.00;;;;;;5072699;28;19909;-70
2022/09/21 01:17:26;;;;;;;;;;;21.40;99.00;;;;;;5071798;28;19908;-74
2022/09/21 01:20:12;;;;;;;;;;;21.40;99.50;;;;;;5072062;28;20365;-74
2022/09/21 01:22:48;;;;;;;;;;;21.50;99.90;;;;;;5071822;28;19909;-73
2022/09/21 01:25:27;;;;;;;;;;;21.40;99.90;;;;;;5071784;28;19955;-71
2022/09/21 01:27:59;;;;;;;;;;;21.30;99.90;;;;;;5071744;28;20360;-74
2022/09/21 01:30:26;;;;;;;;;;;21.30;99.90;;;;;;5072152;28;20003;-73
2022/09/21 01:32:59;;;;;;;;;;;21.30;99.90;;;;;;5071992;28;20310;-72
2022/09/21 01:35:28;;;;;;;;;;;21.20;99.90;;;;;;5072262;28;19952;-72
2022/09/21 01:38:03;;;;;;;;;;;21.20;99.90;;;;;;5072005;28;19908;-71
2022/09/21 01:40:38;;;;;;;;;;;21.20;99.90;;;;;;5071259;28;20391;-71
2022/09/21 01:43:06;;;;;;;;;;;21.30;99.90;;;;;;5071595;28;19955;-74
2022/09/21 01:45:39;;;;;;;;;;;21.30;99.90;;;;;;5072025;28;19962;-72
2022/09/21 01:48:06;;;;;;;;;;;21.30;99.90;;;;;;5072092;28;19912;-71
2022/09/21 01:50:53;;;;;;;;;;;21.30;99.90;;;;;;5072101;28;20326;-68
2022/09/21 01:53:38;;;;;;;;;;;21.30;99.90;;;;;;5071773;28;19909;-73
2022/09/21 01:56:24;;;;;;;;;;;21.30;99.90;;;;;;5071557;28;19908;-70
2022/09/21 01:59:00;;;;;;;;;;;21.20;99.90;;;;;;5071079;28;19986;-74
2022/09/21 02:01:28;;;;;;;;;;;21.10;99.90;;;;;;5071678;28;19909;-76
2022/09/21 02:04:01;;;;;;;;;;;21.10;99.90;;;;;;5071639;28;19928;-72
2022/09/21 02:06:29;;;;;;;;;;;21.00;99.90;;;;;;5071804;28;19955;-70
2022/09/21 02:08:56;;;;;;;;;;;20.90;99.90;;;;;;5071900;28;20053;-72
2022/09/21 02:11:23;;;;;;;;;;;21.00;99.90;;;;;;5071652;28;19967;-78
2022/09/21 02:13:52;;;;;;;;;;;21.00;99.90;;;;;;5071693;28;19958;-78
2022/09/21 02:16:39;;;;;;;;;;;21.00;99.90;;;;;;5071630;28;19920;-75
2022/09/21 02:19:08;;;;;;;;;;;21.00;99.90;;;;;;5071425;28;19923;-69
2022/09/21 02:21:40;;;;;;;;;;;21.00;99.90;;;;;;5071286;28;19913;-67
2022/09/21 02:24:07;;;;;;;;;;;21.10;99.90;;;;;;5071082;28;20269;-74
2022/09/21 02:26:39;;;;;;;;;;;21.10;99.90;;;;;;5071621;28;20288;-73
2022/09/21 02:29:24;;;;;;;;;;;21.20;99.90;;;;;;5071531;28;19909;-69
2022/09/21 02:31:53;;;;;;;;;;;21.20;99.90;;;;;;5075286;28;20003;-70
2022/09/21 02:34:20;;;;;;;;;;;21.30;99.90;;;;;;5075284;28;19954;-71
2022/09/21 02:36:49;;;;;;;;;;;21.20;99.90;;;;;;5075664;28;20002;-73
2022/09/21 02:39:36;;;;;;;;;;;21.30;99.90;;;;;;5075007;28;19924;-70
2022/09/21 02:42:02;;;;;;;;;;;21.20;99.90;;;;;;5074722;28;20352;-75
2022/09/21 02:44:32;;;;;;;;;;;21.30;99.90;;;;;;5074888;28;19908;-71
2022/09/21 02:47:03;;;;;;;;;;;21.30;99.90;;;;;;5075260;28;19909;-68
2022/09/21 02:49:33;;;;;;;;;;;21.30;99.90;;;;;;5069823;28;20003;-75
2022/09/21 02:52:03;;;;;;;;;;;21.30;99.90;;;;;;5063425;28;19912;-73
2022/09/21 02:54:30;;;;;;;;;;;21.30;99.90;;;;;;5036667;28;19955;-68
2022/09/21 02:56:58;;;;;;;;;;;21.30;99.90;;;;;;5054808;28;19932;-74
2022/09/21 02:59:26;;;;;;;;;;;21.30;99.90;;;;;;5054431;28;19974;-76
2022/09/21 03:01:54;;;;;;;;;;;21.30;99.70;;;;;;5054262;28;20356;-72
2022/09/21 03:04:21;;;;;;;;;;;21.30;99.90;;;;;;5053945;28;19921;-75
2022/09/21 03:06:48;;;;;;;;;;;21.20;99.90;;;;;;5054067;28;20012;-71
2022/09/21 03:09:16;;;;;;;;;;;21.30;99.90;;;;;;5054269;28;20365;-76
2022/09/21 03:11:42;;;;;;;;;;;21.30;99.90;;;;;;5054284;28;19964;-75
2022/09/21 03:14:09;;;;;;;;;;;21.20;99.90;;;;;;5054200;28;19915;-75
2022/09/21 03:16:36;;;;;;;;;;;21.20;99.90;;;;;;5053656;28;20385;-76
2022/09/21 03:19:03;;;;;;;;;;;21.10;99.90;;;;;;5054025;28;19963;-75
2022/09/21 03:21:30;;;;;;;;;;;21.20;99.90;;;;;;5054167;28;20290;-75
2022/09/21 03:23:56;;;;;;;;;;;21.10;99.90;;;;;;5054533;28;19913;-75
2022/09/21 03:26:23;;;;;;;;;;;21.10;99.90;;;;;;5054365;28;20280;-76
2022/09/21 03:28:50;;;;;;;;;;;20.90;99.90;;;;;;5054243;28;20379;-77
2022/09/21 03:31:16;;;;;;;;;;;20.90;99.90;;;;;;5054074;28;19970;-76
2022/09/21 03:33:43;;;;;;;;;;;20.80;99.90;;;;;;5054068;28;20327;-71
2022/09/21 03:36:10;;;;;;;;;;;20.80;99.90;;;;;;5054109;28;19954;-71
2022/09/21 03:38:37;;;;;;;;;;;20.80;99.90;;;;;;5036161;28;19916;-72
2022/09/21 03:41:04;;;;;;;;;;;20.70;99.90;;;;;;5053098;28;19916;-73
2022/09/21 03:43:31;;;;;;;;;;;20.70;99.90;;;;;;5053986;28;20149;-72
2022/09/21 03:45:57;;;;;;;;;;;20.60;99.90;;;;;;5053956;28;19913;-75
2022/09/21 03:48:24;;;;;;;;;;;20.60;99.90;;;;;;5053705;28;19934;-75
2022/09/21 03:50:51;;;;;;;;;;;20.60;99.90;;;;;;5053730;28;19908;-69
2022/09/21 03:53:17;;;;;;;;;;;20.50;99.90;;;;;;5053982;28;19967;-74
2022/09/21 03:55:44;;;;;;;;;;;20.50;99.90;;;;;;5053963;28;19916;-73
2022/09/21 03:58:11;;;;;;;;;;;20.50;99.90;;;;;;5053479;28;20339;-75
2022/09/21 04:00:38;;;;;;;;;;;20.40;99.90;;;;;;5053484;28;19999;-73
2022/09/21 04:03:04;;;;;;;;;;;20.30;99.90;;;;;;5053822;28;19912;-73
2022/09/21 04:05:31;;;;;;;;;;;20.30;99.90;;;;;;5053696;28;19921;-75
2022/09/21 04:08:00;;;;;;;;;;;20.20;99.90;;;;;;5052909;28;19920;-72
2022/09/21 04:10:31;;;;;;;;;;;20.20;99.90;;;;;;5053521;28;19944;-72
2022/09/21 04:13:00;;;;;;;;;;;20.10;99.90;;;;;;5053382;28;20007;-72
2022/09/21 04:15:26;;;;;;;;;;;20.20;99.90;;;;;;5053660;28;19909;-74
2022/09/21 04:17:53;;;;;;;;;;;20.20;99.90;;;;;;5053702;28;20365;-73
2022/09/21 04:20:20;;;;;;;;;;;20.10;99.90;;;;;;5053316;28;20264;-73
2022/09/21 04:22:47;;;;;;;;;;;20.10;99.90;;;;;;5053184;28;19948;-75
2022/09/21 04:25:14;;;;;;;;;;;20.10;99.90;;;;;;5053385;28;19916;-74
2022/09/21 04:27:41;;;;;;;;;;;20.20;99.90;;;;;;5053134;28;19913;-72
2022/09/21 04:30:09;;;;;;;;;;;20.20;99.90;;;;;;5053204;28;20464;-73
2022/09/21 04:32:36;;;;;;;;;;;20.10;99.90;;;;;;5053007;28;19999;-74
2022/09/21 04:35:02;;;;;;;;;;;20.10;99.90;;;;;;5053040;28;19905;-72
2022/09/21 04:37:29;;;;;;;;;;;20.00;99.90;;;;;;5052891;28;19913;-73
2022/09/21 04:39:56;;;;;;;;;;;20.10;99.90;;;;;;5052940;28;19963;-72
2022/09/21 04:42:22;;;;;;;;;;;20.10;99.90;;;;;;5053074;28;20345;-70
2022/09/21 04:44:50;;;;;;;;;;;20.00;99.90;;;;;;5052937;28;19944;-70
2022/09/21 04:47:16;;;;;;;;;;;20.10;99.90;;;;;;5053156;28;19916;-69
2022/09/21 04:49:43;;;;;;;;;;;20.10;99.90;;;;;;5053000;28;19909;-70
2022/09/21 04:52:10;;;;;;;;;;;20.00;99.90;;;;;;5052352;28;19909;-71
2022/09/21 04:54:36;;;;;;;;;;;20.10;99.90;;;;;;5035148;28;20011;-74
2022/09/21 04:57:03;;;;;;;;;;;19.90;99.90;;;;;;5053037;28;20430;-75
2022/09/21 04:59:29;;;;;;;;;;;19.90;99.90;;;;;;5052494;28;19924;-75
2022/09/21 05:01:56;;;;;;;;;;;19.90;99.90;;;;;;5052648;28;19909;-74
2022/09/21 05:04:23;;;;;;;;;;;19.90;99.90;;;;;;5052964;28;19921;-71
2022/09/21 05:06:54;;;;;;;;;;;19.80;99.90;;;;;;5051660;28;20281;-75
2022/09/21 05:12:05;;;;;;;;;;;19.80;99.90;;;;;;5052313;28;20007;-70
2022/09/21 05:14:32;;;;;;;;;;;19.80;99.90;;;;;;5052103;28;19909;-70
2022/09/21 05:16:59;;;;;;;;;;;19.80;99.90;;;;;;5051911;28;19963;-72
2022/09/21 05:19:25;;;;;;;;;;;19.70;99.90;;;;;;5051825;28;19983;-73
2022/09/21 05:21:52;;;;;;;;;;;19.70;99.90;;;;;;5051561;28;19909;-71
2022/09/21 05:24:18;;;;;;;;;;;19.60;99.90;;;;;;5052290;28;19909;-75
2022/09/21 05:26:45;;;;;;;;;;;19.60;99.90;;;;;;5052657;28;20277;-72
2022/09/21 05:29:12;;;;;;;;;;;19.50;99.90;;;;;;5055999;28;19908;-71
2022/09/21 05:31:47;;;;;;;;;;;19.50;99.90;;;;;;5057389;28;19920;-74
2022/09/21 05:34:23;;;;;;;;;;;19.50;99.90;;;;;;5054056;28;19909;-72
2022/09/21 05:36:53;;;;;;;;;;;19.50;99.90;;;;;;5055798;28;19908;-70
2022/09/21 05:39:20;;;;;;;;;;;19.40;99.90;;;;;;5060589;28;19964;-69
2022/09/21 05:41:47;;;;;;;;;;;19.40;99.90;;;;;;5058337;28;19959;-70
2022/09/21 05:44:14;;;;;;;;;;;19.40;99.90;;;;;;5059709;28;19909;-68
2022/09/21 05:46:42;;;;;;;;;;;19.40;99.90;;;;;;5061494;28;19913;-68
2022/09/21 05:49:16;;;;;;;;;;;19.30;99.90;;;;;;5070733;28;20335;-71
2022/09/21 05:51:42;;;;;;;;;;;19.40;99.90;;;;;;5053677;28;19919;-75
2022/09/21 05:54:12;;;;;;;;;;;19.40;99.90;;;;;;5051259;28;19909;-72
2022/09/21 05:56:38;;;;;;;;;;;19.40;99.90;;;;;;5050623;28;19909;-69
2022/09/21 05:59:20;;;;;;;;;;;19.30;99.90;;;;;;5050759;28;19916;-70
2022/09/21 06:02:00;;;;;;;;;;;19.40;99.90;;;;;;5053869;28;19931;-73
2022/09/21 06:04:27;;;;;;;;;;;19.30;99.90;;;;;;5073356;28;19967;-68
2022/09/21 06:06:53;;;;;;;;;;;19.30;99.90;;;;;;5068335;28;20385;-70
2022/09/21 06:09:20;;;;;;;;;;;19.30;99.90;;;;;;5054979;28;19953;-72
2022/09/21 06:11:47;;;;;;;;;;;19.30;99.90;;;;;;5054011;28;19909;-69
2022/09/21 06:14:14;;;;;;;;;;;19.30;99.90;;;;;;5054756;28;19909;-69
2022/09/21 06:16:42;;;;;;;;;;;19.30;99.90;;;;;;5054556;28;19955;-70
2022/09/21 06:19:12;;;;;;;;;;;19.30;99.90;;;;;;5058442;28;20050;-67
2022/09/21 06:21:39;;;;;;;;;;;19.30;99.90;;;;;;5063225;28;21182;-65
2022/09/21 06:24:06;;;;;;;;;;;19.30;99.90;;;;;;5059485;28;19976;-67
2022/09/21 06:26:32;;;;;;;;;;;19.20;99.90;;;;;;5066745;28;19912;-68
2022/09/21 06:28:59;;;;;;;;;;;19.20;99.90;;;;;;5054364;28;19909;-68
2022/09/21 06:31:26;;;;;;;;;;;19.20;99.90;;;;;;5053967;28;20583;-67
2022/09/21 06:33:53;;;;;;;;;;;19.20;99.90;;;;;;5054766;28;19909;-70
2022/09/21 06:36:20;;;;;;;;;;;19.20;99.90;;;;;;5036467;28;20008;-72
2022/09/21 06:38:47;;;;;;;;;;;19.20;99.90;;;;;;5036684;28;20364;-72
2022/09/21 06:41:14;;;;;;;;;;;19.20;99.90;;;;;;5052460;28;19916;-68
2022/09/21 06:43:40;;;;;;;;;;;19.20;99.90;;;;;;5053318;28;20428;-68
2022/09/21 06:46:07;;;;;;;;;;;19.20;99.90;;;;;;5061874;28;19965;-68
2022/09/21 06:48:34;;;;;;;;;;;19.20;99.90;;;;;;5074592;28;20001;-71
2022/09/21 06:51:01;;;;;;;;;;;19.10;99.90;;;;;;5067490;28;19912;-71
2022/09/21 06:53:29;;;;;;;;;;;19.20;99.90;;;;;;5058911;28;19921;-73
2022/09/21 06:56:06;;;;;;;;;;;19.20;99.90;;;;;;5054332;28;20364;-69
2022/09/21 06:58:33;;;;;;;;;;;19.10;99.90;;;;;;5054673;28;20280;-69
2022/09/21 07:01:10;;;;;;;;;;;19.20;99.90;;;;;;5053534;28;20365;-72
2022/09/21 07:03:37;;;;;;;;;;;19.10;99.90;;;;;;5070983;28;20600;-67
2022/09/21 07:06:04;;;;;;;;;;;19.10;99.90;;;;;;5070064;28;19913;-72
2022/09/21 07:08:31;;;;;;;;;;;19.10;99.90;;;;;;5062925;28;19916;-72
2022/09/21 07:10:58;;;;;;;;;;;19.10;99.90;;;;;;5073811;28;19956;-71
2022/09/21 07:13:25;;;;;;;;;;;19.10;99.90;;;;;;5054206;28;19966;-72
2022/09/21 07:15:52;;;;;;;;;;;19.10;99.90;;;;;;5053228;28;19909;-71
2022/09/21 07:18:20;;;;;;;;;;;19.00;99.90;;;;;;5053560;28;19908;-74
2022/09/21 07:20:49;;;;;;;;;;;19.00;99.90;;;;;;5034330;28;19917;-73
2022/09/21 07:23:17;;;;;;;;;;;19.00;99.90;;;;;;5053279;28;19912;-69
2022/09/21 07:25:44;;;;;;;;;;;19.00;99.90;;;;;;5054254;28;20472;-67
2022/09/21 07:28:11;;;;;;;;;;;19.00;99.90;;;;;;5057037;28;19912;-73
2022/09/21 07:30:39;;;;;;;;;;;19.00;99.90;;;;;;5053545;28;19917;-68
2022/09/21 07:33:06;;;;;;;;;;;19.00;99.90;;;;;;5053379;28;20003;-69
2022/09/21 07:35:33;;;;;;;;;;;19.00;99.90;;;;;;5053655;28;19956;-72
2022/09/21 07:38:04;;;;;;;;;;;19.00;99.90;;;;;;5056653;28;19913;-71
2022/09/21 07:40:32;;;;;;;;;;;18.90;99.90;;;;;;5054330;28;19963;-69
2022/09/21 07:43:02;;;;;;;;;;;18.90;99.90;;;;;;5055138;28;19913;-69
2022/09/21 07:45:30;;;;;;;;;;;18.90;99.90;;;;;;5073335;28;19919;-73
2022/09/21 07:48:01;;;;;;;;;;;18.90;99.90;;;;;;5070248;28;20387;-70
2022/09/21 07:50:28;;;;;;;;;;;18.90;99.90;;;;;;5055641;28;19916;-73
2022/09/21 07:52:55;;;;;;;;;;;18.90;99.90;;;;;;5053246;28;19909;-72
2022/09/21 07:55:21;;;;;;;;;;;18.90;99.90;;;;;;5052112;28;19919;-73
2022/09/21 08:00:34;;;;;;;;;;;18.90;99.90;;;;;;5052530;28;19961;-68
2022/09/21 08:03:01;;;;;;;;;;;18.90;99.90;;;;;;5052338;28;20361;-69
2022/09/21 08:05:27;;;;;;;;;;;18.90;99.90;;;;;;5052523;28;19921;-72
2022/09/21 08:07:57;;;;;;;;;;;18.90;99.90;;;;;;5052784;28;20079;-71
2022/09/21 08:10:25;;;;;;;;;;;18.90;99.90;;;;;;5056754;28;19928;-74
2022/09/21 08:12:51;;;;;;;;;;;18.90;99.90;;;;;;5058413;28;19912;-73
2022/09/21 08:15:18;;;;;;;;;;;18.90;99.90;;;;;;5063075;28;20731;-73
2022/09/21 08:17:45;;;;;;;;;;;18.90;99.90;;;;;;5061167;28;20289;-74
2022/09/21 08:20:12;;;;;;;;;;;18.90;99.90;;;;;;5049847;28;20288;-72
2022/09/21 08:22:39;;;;;;;;;;;18.90;99.90;;;;;;5064456;28;19912;-69
2022/09/21 08:25:06;;;;;;;;;;;18.80;99.90;;;;;;5059784;28;19912;-73
2022/09/21 08:27:33;;;;;;;;;;;18.80;99.90;;;;;;5057644;28;19916;-72
2022/09/21 08:30:01;;;;;;;;;;;18.90;99.90;;;;;;5059854;28;19917;-73
2022/09/21 08:32:31;;;;;;;;;;;18.80;99.90;;;;;;5058486;28;19913;-74
2022/09/21 08:34:57;;;;;;;;;;;18.80;99.90;;;;;;5060326;28;19915;-70
2022/09/21 08:37:30;;;;;;;;;;;18.80;99.90;;;;;;5058574;28;19917;-76
2022/09/21 08:39:56;;;;;;;;;;;18.80;99.90;;;;;;5050307;28;19917;-70
2022/09/21 08:42:23;;;;;;;;;;;18.80;99.90;;;;;;5044649;28;19915;-74
2022/09/21 08:44:59;;;;;;;;;;;18.80;99.90;;;;;;5050845;28;19920;-74
2022/09/21 08:47:45;;;;;;;;;;;18.80;99.90;;;;;;5058065;28;19917;-73
2022/09/21 08:50:33;;;;;;;;;;;18.80;99.90;;;;;;5054030;28;20350;-72
2022/09/21 08:53:32;;;;;;;;;;;18.80;99.90;;;;;;5058442;28;19921;-69
2022/09/21 08:55:59;;;;;;;;;;;18.80;99.90;;;;;;5016908;28;19999;-74
2022/09/21 08:58:30;;;;;;;;;;;18.80;99.90;;;;;;5060617;28;19921;-70
2022/09/21 09:00:59;;;;;;;;;;;18.70;99.90;;;;;;5061552;28;19913;-72
2022/09/21 09:03:44;;;;;;;;;;;18.80;99.90;;;;;;5061084;28;19921;-75
2022/09/21 09:06:22;;;;;;;;;;;18.70;99.90;;;;;;5056124;28;19917;-73
2022/09/21 09:08:58;;;;;;;;;;;18.70;99.90;;;;;;5061401;28;19965;-72
2022/09/21 09:11:42;;;;;;;;;;;18.70;99.90;;;;;;5060699;28;19932;-72
2022/09/21 09:14:09;;;;;;;;;;;18.70;99.90;;;;;;5058130;28;19947;-72
2022/09/21 09:16:56;;;;;;;;;;;18.70;99.90;;;;;;5060144;28;19912;-72
2022/09/21 09:19:37;;;;;;;;;;;18.70;99.90;;;;;;5056719;28;20369;-71
2022/09/21 09:22:07;;;;;;;;;;;18.70;99.90;;;;;;5040114;28;19913;-71
2022/09/21 09:24:36;;;;;;;;;;;18.60;99.90;;;;;;5055871;28;19908;-73
2022/09/21 09:27:14;;;;;;;;;;;18.70;99.90;;;;;;5058609;28;19920;-70
2022/09/21 09:29:40;;;;;;;;;;;18.60;99.90;;;;;;5050102;28;20309;-70
2022/09/21 09:32:16;;;;;;;;;;;18.60;99.90;;;;;;5058671;28;19922;-72
2022/09/21 09:34:48;;;;;;;;;;;18.60;99.90;;;;;;5059238;28;20058;-68
2022/09/21 09:37:16;;;;;;;;;;;18.60;99.90;;;;;;5059354;28;19916;-71
2022/09/21 09:39:47;;;;;;;;;;;18.60;99.90;;;;;;5058853;28;20023;-68
2022/09/21 09:42:16;;;;;;;;;;;18.60;99.90;;;;;;5058515;28;20254;-70
2022/09/21 09:44:43;;;;;;;;;;;18.60;99.90;;;;;;5058679;28;19917;-68
2022/09/21 09:47:24;;;;;;;;;;;18.60;99.90;;;;;;5060434;28;19913;-70
2022/09/21 09:50:00;;;;;;;;;;;18.60;99.90;;;;;;5060487;28;19915;-71
2022/09/21 09:52:27;;;;;;;;;;;18.50;99.90;;;;;;5053905;28;19920;-71
2022/09/21 09:54:53;;;;;;;;;;;18.50;99.90;;;;;;5069363;28;20011;-68
2022/09/21 09:57:26;;;;;;;;;;;18.50;99.90;;;;;;5070340;28;19912;-70
2022/09/21 09:59:55;;;;;;;;;;;18.50;99.90;;;;;;5042648;28;19928;-70
2022/09/21 10:02:22;;;;;;;;;;;18.50;99.90;;;;;;5058758;28;19966;-69
2022/09/21 10:05:05;;;;;;;;;;;18.50;99.90;;;;;;5050830;28;19969;-68
2022/09/21 10:07:35;;;;;;;;;;;18.50;99.90;;;;;;5051326;28;19959;-69
2022/09/21 10:10:02;;;;;;;;;;;18.50;99.90;;;;;;5050845;28;19917;-70
2022/09/21 10:12:29;;;;;;;;;;;18.50;99.90;;;;;;5050687;28;19913;-69
2022/09/21 10:14:59;;;;;;;;;;;18.40;99.90;;;;;;5062023;28;20280;-69
2022/09/21 10:17:26;;;;;;;;;;;18.40;99.90;;;;;;5064290;28;19993;-68
2022/09/21 10:20:00;;;;;;;;;;;18.40;99.90;;;;;;5070714;28;19916;-68
2022/09/21 10:22:27;;;;;;;;;;;18.40;99.90;;;;;;5050759;28;20273;-68
2022/09/21 10:24:55;;;;;;;;;;;18.40;99.90;;;;;;5050983;28;20388;-69
2022/09/21 10:27:33;;;;;;;;;;;18.40;99.90;;;;;;5050160;28;19923;-68
2022/09/21 10:30:00;;;;;;;;;;;18.40;99.90;;;;;;5050795;28;19912;-68
2022/09/21 10:32:28;;;;;;;;;;;18.40;99.90;;;;;;5050604;28;19905;-69
2022/09/21 10:35:07;;;;;;;;;;;18.40;99.90;;;;;;5050769;28;19982;-69
2022/09/21 10:37:40;;;;;;;;;;;18.40;99.90;;;;;;5050890;28;19912;-70
2022/09/21 10:40:26;;;;;;;;;;;18.40;99.90;;;;;;5049894;28;19928;-68
2022/09/21 10:42:59;;;;;;;;;;;18.40;99.90;;;;;;5049480;28;20410;-73
2022/09/21 10:45:28;;;;;;;;;;;18.40;99.90;;;;;;5050530;28;20007;-72
2022/09/21 10:47:56;;;;;;;;;;;18.40;99.90;;;;;;5050520;28;20004;-68
2022/09/21 10:50:35;;;;;;;;;;;18.40;99.90;;;;;;5051174;28;19948;-73
2022/09/21 10:53:11;;;;;;;;;;;18.40;99.90;;;;;;5054321;28;19913;-75
2022/09/21 10:55:43;;;;;;;;;;;18.40;99.90;;;;;;5054158;28;19909;-71
2022/09/21 10:58:11;;;;;;;;;;;18.40;99.90;;;;;;5054442;28;20284;-71
2022/09/21 11:00:42;;;;;;;;;;;18.40;99.90;;;;;;5053785;28;19990;-72
2022/09/21 11:03:44;;;;;;;;;;;18.40;99.90;;;;;;5057553;28;19920;-67
2022/09/21 11:06:14;;;;;;;;;;;18.30;99.90;;;;;;4973451;28;19922;-68
2022/09/21 11:08:48;;;;;;;;;;;18.40;99.90;;;;;;5056591;28;19916;-68
2022/09/21 11:11:31;;;;;;;;;;;18.40;99.90;;;;;;5071867;28;19958;-70
2022/09/21 11:14:16;;;;;;;;;;;18.30;99.90;;;;;;5063560;28;19932;-68
2022/09/21 11:16:47;;;;;;;;;;;18.40;99.90;;;;;;5073896;28;20015;-68
2022/09/21 11:19:26;;;;;;;;;;;18.30;99.90;;;;;;5073625;28;19957;-70
2022/09/21 11:21:59;;;;;;;;;;;18.40;99.90;;;;;;5072914;28;19962;-70
2022/09/21 11:24:34;;;;;;;;;;;18.30;99.90;;;;;;5073755;28;19966;-69
2022/09/21 11:27:16;;;;;;;;;;;18.40;99.90;;;;;;5073449;28;19908;-74
2022/09/21 11:30:02;;;;;;;;;;;18.30;99.90;;;;;;5073565;28;19916;-68
2022/09/21 11:32:33;;;;;;;;;;;18.30;99.90;;;;;;5062423;28;20250;-69
2022/09/21 11:35:08;;;;;;;;;;;18.30;99.90;;;;;;5048608;28;19909;-69
2022/09/21 11:37:49;;;;;;;;;;;18.30;99.90;;;;;;5053834;28;20011;-68
2022/09/21 11:40:26;;;;;;;;;;;18.30;99.90;;;;;;5053455;28;20384;-73
2022/09/21 11:43:00;;;;;;;;;;;18.30;99.90;;;;;;5053462;28;19970;-69
2022/09/21 11:45:27;;;;;;;;;;;18.30;99.90;;;;;;5053944;28;19941;-68
2022/09/21 11:48:00;;;;;;;;;;;18.30;99.90;;;;;;5035542;28;19952;-73
2022/09/21 11:50:32;;;;;;;;;;;18.30;99.90;;;;;;5053125;28;19909;-69
2022/09/21 11:53:15;;;;;;;;;;;18.30;99.90;;;;;;5053290;28;19917;-70
2022/09/21 11:55:50;;;;;;;;;;;18.20;99.90;;;;;;5053339;28;19909;-71
2022/09/21 11:58:22;;;;;;;;;;;18.20;99.90;;;;;;5034979;28;20000;-70
2022/09/21 12:01:01;;;;;;;;;;;18.20;99.90;;;;;;5053127;28;19927;-70
2022/09/21 12:03:43;;;;;;;;;;;18.20;99.90;;;;;;5053077;28;20280;-70
2022/09/21 12:06:16;;;;;;;;;;;18.20;99.90;;;;;;5068254;28;19912;-69
2022/09/21 12:08:55;;;;;;;;;;;18.20;99.90;;;;;;5072865;28;19915;-70
2022/09/21 12:11:40;;;;;;;;;;;18.20;99.90;;;;;;5069703;28;19912;-70
2022/09/21 12:14:14;;;;;;;;;;;18.10;99.90;;;;;;5052511;28;20250;-68
2022/09/21 12:16:59;;;;;;;;;;;18.10;99.90;;;;;;5052107;28;19913;-71
2022/09/21 12:19:32;;;;;;;;;;;18.20;99.90;;;;;;5052690;28;19921;-73
2022/09/21 12:22:02;;;;;;;;;;;18.10;99.90;;;;;;5052401;28;19908;-68
2022/09/21 12:24:32;;;;;;;;;;;18.10;99.90;;;;;;5034256;28;19909;-70
2022/09/21 12:27:06;;;;;;;;;;;18.10;99.90;;;;;;5034469;28;19913;-70
2022/09/21 12:29:37;;;;;;;;;;;18.10;99.90;;;;;;5052510;28;19908;-69
2022/09/21 12:32:14;;;;;;;;;;;18.10;99.90;;;;;;5052068;28;19932;-70
2022/09/21 12:34:46;;;;;;;;;;;18.00;99.90;;;;;;5051808;28;19917;-70
2022/09/21 12:37:24;;;;;;;;;;;18.00;99.90;;;;;;5051143;28;19931;-75
2022/09/21 12:39:51;;;;;;;;;;;18.00;99.90;;;;;;5051641;28;19923;-73
2022/09/21 12:42:27;;;;;;;;;;;17.90;99.90;;;;;;5054170;28;19909;-70
2022/09/21 12:45:02;;;;;;;;;;;18.00;99.90;;;;;;5066170;28;19966;-70
2022/09/21 12:47:29;;;;;;;;;;;18.00;99.90;;;;;;5050504;28;19931;-73
2022/09/21 12:49:59;;;;;;;;;;;18.00;99.90;;;;;;5060077;28;19909;-73
2022/09/21 12:52:27;;;;;;;;;;;18.00;99.90;;;;;;5052547;28;19913;-69
2022/09/21 12:55:02;;;;;;;;;;;18.00;99.90;;;;;;5052541;28;19913;-73
2022/09/21 12:57:42;;;;;;;;;;;18.00;99.90;;;;;;5052184;28;20330;-71
2022/09/21 13:00:20;;;;;;;;;;;17.90;99.90;;;;;;5051685;28;19921;-71
2022/09/21 13:02:56;;;;;;;;;;;17.90;99.90;;;;;;5034459;28;19954;-72
2022/09/21 13:05:26;;;;;;;;;;;17.90;99.90;;;;;;5040443;28;19928;-72
2022/09/21 13:07:59;;;;;;;;;;;17.90;99.90;;;;;;5042890;28;20373;-74
2022/09/21 13:10:26;;;;;;;;;;;17.80;99.90;;;;;;5059666;28;19999;-71
2022/09/21 13:12:55;;;;;;;;;;;17.90;99.90;;;;;;5059091;28;19932;-73
2022/09/21 13:15:32;;;;;;;;;;;17.90;99.90;;;;;;5058377;28;19956;-68
2022/09/21 13:18:01;;;;;;;;;;;17.90;99.90;;;;;;5051730;28;20321;-70
2022/09/21 13:20:33;;;;;;;;;;;17.80;99.90;;;;;;5049843;28;19936;-68
2022/09/21 13:23:01;;;;;;;;;;;17.80;99.90;;;;;;5050526;28;19979;-69
2022/09/21 13:25:29;;;;;;;;;;;17.80;99.90;;;;;;5052703;28;20362;-72
2022/09/21 13:27:59;;;;;;;;;;;17.80;99.90;;;;;;5051565;28;19909;-69
2022/09/21 13:30:44;;;;;;;;;;;17.80;99.90;;;;;;5051209;28;20357;-69
2022/09/21 13:33:21;;;;;;;;;;;17.90;99.90;;;;;;5033924;28;19909;-69
2022/09/21 13:35:51;;;;;;;;;;;17.80;99.90;;;;;;5056099;28;20003;-68
2022/09/21 13:38:36;;;;;;;;;;;17.70;99.90;;;;;;5071660;28;19909;-72
2022/09/21 13:41:06;;;;;;;;;;;17.70;99.90;;;;;;5071549;28;20380;-72
2022/09/21 13:43:49;;;;;;;;;;;17.70;99.90;;;;;;5071148;28;20356;-74
2022/09/21 13:46:33;;;;;;;;;;;17.70;99.90;;;;;;5070988;28;20003;-69
2022/09/21 13:49:15;;;;;;;;;;;17.70;99.90;;;;;;5072243;28;19947;-71
2022/09/21 13:51:51;;;;;;;;;;;17.60;99.90;;;;;;5071829;28;19908;-74
2022/09/21 13:54:20;;;;;;;;;;;17.60;99.90;;;;;;5058627;28;19952;-70
2022/09/21 13:56:56;;;;;;;;;;;17.60;99.90;;;;;;5051280;28;19982;-70
2022/09/21 13:59:25;;;;;;;;;;;17.60;99.90;;;;;;5050625;28;19967;-74
2022/09/21 14:01:52;;;;;;;;;;;17.60;99.90;;;;;;5051140;28;20265;-69
2022/09/21 14:04:28;;;;;;;;;;;17.60;99.90;;;;;;5051539;28;20008;-69
2022/09/21 14:06:56;;;;;;;;;;;17.60;99.90;;;;;;5066919;28;19966;-69
2022/09/21 14:09:27;;;;;;;;;;;17.50;99.90;;;;;;5071996;28;19939;-69
2022/09/21 14:11:58;;;;;;;;;;;17.50;99.90;;;;;;5071598;28;19909;-69
2022/09/21 14:14:31;;;;;;;;;;;17.40;99.90;;;;;;5071279;28;19999;-70
2022/09/21 14:16:59;;;;;;;;;;;17.40;99.90;;;;;;5051733;28;19919;-68
2022/09/21 14:19:25;;;;;;;;;;;17.40;99.90;;;;;;5051591;28;19921;-68
2022/09/21 14:22:15;;;;;;;;;;;17.40;99.90;;;;;;5051746;28;19931;-69
2022/09/21 14:24:52;;;;;;;;;;;17.40;99.90;;;;;;5040127;28;19948;-70
2022/09/21 14:27:25;;;;;;;;;;;17.30;99.90;;;;;;5054765;28;20441;-68
2022/09/21 14:29:53;;;;;;;;;;;17.40;99.90;;;;;;5056691;28;20000;-69
2022/09/21 14:32:24;;;;;;;;;;;17.40;99.90;;;;;;5075773;28;20004;-69
2022/09/21 14:34:55;;;;;;;;;;;17.30;99.90;;;;;;5075939;28;19961;-69
2022/09/21 14:37:21;;;;;;;;;;;17.40;99.90;;;;;;5075191;28;19962;-71
2022/09/21 14:39:49;;;;;;;;;;;17.40;99.90;;;;;;5073432;28;20410;-73
2022/09/21 14:42:22;;;;;;;;;;;17.50;99.90;;;;;;5074558;28;19947;-70